sensor_id;sensor_type;location;lat;lon;timestamp;pressure;altitude;pressure_sealevel;temperature;humidity
42433;BME280;28071;48.232;20.668;2023-05-19T00:02:27;100259.16;;;7.26;100.00
42433;BME280;28071;48.232;20.668;2023-05-19T00:07:32;100268.44;;;7.21;100.00
42433;BME280;28071;48.232;20.668;2023-05-19T00:12:35;100276.13;;;7.31;100.00
42433;BME280;28071;48.232;20.668;2023-05-19T00:17:35;100279.44;;;7.48;100.00
42433;BME280;28071;48.232;20.668;2023-05-19T00:22:37;100284.06;;;7.31;100.00
42433;BME280;28071;48.232;20.668;2023-05-19T00:27:37;100278.19;;;7.21;100.00
42433;BME280;28071;48.232;20.668;2023-05-19T00:32:38;100254.09;;;6.93;100.00
42433;BME280;28071;48.232;20.668;2023-05-19T00:37:38;100266.81;;;6.98;100.00
42433;BME280;28071;48.232;20.668;2023-05-19T00:42:40;100270.97;;;6.92;100.00
42433;BME280;28071;48.232;20.668;2023-05-19T00:47:40;100263.72;;;6.86;100.00
42433;BME280;28071;48.232;20.668;2023-05-19T00:52:41;100262.47;;;6.82;100.00
42433;BME280;28071;48.232;20.668;2023-05-19T00:57:42;100269.44;;;6.75;100.00
42433;BME280;28071;48.232;20.668;2023-05-19T01:02:43;100267.56;;;6.83;100.00
42433;BME280;28071;48.232;20.668;2023-05-19T01:07:43;100270.78;;;6.71;100.00
42433;BME280;28071;48.232;20.668;2023-05-19T01:12:46;100256.09;;;6.91;100.00
42433;BME280;28071;48.232;20.668;2023-05-19T01:17:55;100258.81;;;6.83;100.00
42433;BME280;28071;48.232;20.668;2023-05-19T01:33:23;100264.69;;;6.93;100.00
42433;BME280;28071;48.232;20.668;2023-05-19T01:38:27;100247.47;;;6.97;100.00
42433;BME280;28071;48.232;20.668;2023-05-19T01:43:28;100267.63;;;6.98;100.00
42433;BME280;28071;48.232;20.668;2023-05-19T01:48:29;100270.09;;;7.00;100.00
42433;BME280;28071;48.232;20.668;2023-05-19T01:53:30;100264.91;;;7.06;100.00
42433;BME280;28071;48.232;20.668;2023-05-19T01:58:44;100226.66;;;6.94;100.00
42433;BME280;28071;48.232;20.668;2023-05-19T02:04:32;100264.78;;;7.22;100.00
42433;BME280;28071;48.232;20.668;2023-05-19T02:15:09;100234.59;;;6.71;100.00
42433;BME280;28071;48.232;20.668;2023-05-19T02:20:10;100262.47;;;6.82;100.00
42433;BME280;28071;48.232;20.668;2023-05-19T02:25:11;100253.09;;;6.71;100.00
42433;BME280;28071;48.232;20.668;2023-05-19T02:30:11;100251.63;;;6.68;100.00
42433;BME280;28071;48.232;20.668;2023-05-19T02:35:12;100225.84;;;6.71;100.00
42433;BME280;28071;48.232;20.668;2023-05-19T02:40:13;100254.09;;;6.70;100.00
42433;BME280;28071;48.232;20.668;2023-05-19T02:45:13;100249.88;;;6.61;100.00
42433;BME280;28071;48.232;20.668;2023-05-19T02:50:14;100247.34;;;6.90;100.00
42433;BME280;28071;48.232;20.668;2023-05-19T02:55:14;100253.75;;;6.96;100.00
42433;BME280;28071;48.232;20.668;2023-05-19T03:00:16;100258.75;;;6.91;100.00
42433;BME280;28071;48.232;20.668;2023-05-19T03:05:17;100261.34;;;6.99;100.00
42433;BME280;28071;48.232;20.668;2023-05-19T03:10:19;100254.69;;;7.03;100.00
42433;BME280;28071;48.232;20.668;2023-05-19T03:15:19;100256.47;;;7.11;100.00
42433;BME280;28071;48.232;20.668;2023-05-19T03:20:22;100261.75;;;7.11;100.00
42433;BME280;28071;48.232;20.668;2023-05-19T03:25:23;100265.78;;;7.21;100.00
42433;BME280;28071;48.232;20.668;2023-05-19T03:30:24;100262.44;;;7.28;100.00
42433;BME280;28071;48.232;20.668;2023-05-19T03:35:24;100259.00;;;7.42;100.00
42433;BME280;28071;48.232;20.668;2023-05-19T03:40:25;100262.56;;;7.49;100.00
42433;BME280;28071;48.232;20.668;2023-05-19T03:45:25;100261.34;;;7.37;100.00
42433;BME280;28071;48.232;20.668;2023-05-19T03:50:26;100263.78;;;7.23;100.00
42433;BME280;28071;48.232;20.668;2023-05-19T03:55:28;100267.28;;;7.39;100.00
42433;BME280;28071;48.232;20.668;2023-05-19T04:00:29;100273.78;;;7.51;100.00
42433;BME280;28071;48.232;20.668;2023-05-19T04:05:29;100283.66;;;7.57;100.00
42433;BME280;28071;48.232;20.668;2023-05-19T04:10:29;100267.53;;;7.67;100.00
42433;BME280;28071;48.232;20.668;2023-05-19T04:15:30;100239.84;;;7.55;100.00
42433;BME280;28071;48.232;20.668;2023-05-19T04:20:30;100274.66;;;7.81;100.00
42433;BME280;28071;48.232;20.668;2023-05-19T04:25:31;100284.88;;;7.84;100.00
42433;BME280;28071;48.232;20.668;2023-05-19T04:30:32;100282.97;;;7.93;100.00
42433;BME280;28071;48.232;20.668;2023-05-19T04:35:33;100289.34;;;8.13;100.00
42433;BME280;28071;48.232;20.668;2023-05-19T04:40:34;100292.00;;;8.28;100.00
42433;BME280;28071;48.232;20.668;2023-05-19T04:45:34;100294.28;;;8.46;100.00
42433;BME280;28071;48.232;20.668;2023-05-19T04:50:36;100290.53;;;8.55;100.00
42433;BME280;28071;48.232;20.668;2023-05-19T04:55:37;100287.66;;;8.71;100.00
42433;BME280;28071;48.232;20.668;2023-05-19T05:00:38;100288.25;;;8.88;100.00
42433;BME280;28071;48.232;20.668;2023-05-19T05:05:38;100288.19;;;9.03;100.00
42433;BME280;28071;48.232;20.668;2023-05-19T05:10:39;100291.91;;;9.30;100.00
42433;BME280;28071;48.232;20.668;2023-05-19T05:15:39;100269.81;;;9.51;100.00
42433;BME280;28071;48.232;20.668;2023-05-19T05:20:41;100260.31;;;9.63;100.00
42433;BME280;28071;48.232;20.668;2023-05-19T05:25:43;100271.16;;;10.02;100.00
42433;BME280;28071;48.232;20.668;2023-05-19T05:30:43;100263.22;;;10.09;100.00
42433;BME280;28071;48.232;20.668;2023-05-19T05:35:45;100276.28;;;10.39;100.00
42433;BME280;28071;48.232;20.668;2023-05-19T05:40:45;100269.78;;;10.54;100.00
42433;BME280;28071;48.232;20.668;2023-05-19T05:45:46;100238.91;;;10.53;100.00
42433;BME280;28071;48.232;20.668;2023-05-19T05:50:47;100269.72;;;10.96;100.00
42433;BME280;28071;48.232;20.668;2023-05-19T05:55:49;100271.56;;;11.15;100.00
42433;BME280;28071;48.232;20.668;2023-05-19T06:00:50;100279.38;;;11.36;100.00
42433;BME280;28071;48.232;20.668;2023-05-19T06:05:52;100285.69;;;11.75;100.00
42433;BME280;28071;48.232;20.668;2023-05-19T06:10:52;100277.06;;;11.93;100.00
42433;BME280;28071;48.232;20.668;2023-05-19T06:15:53;100285.22;;;12.25;100.00
42433;BME280;28071;48.232;20.668;2023-05-19T06:20:53;100286.59;;;12.40;100.00
42433;BME280;28071;48.232;20.668;2023-05-19T06:25:54;100284.31;;;12.37;100.00
42433;BME280;28071;48.232;20.668;2023-05-19T06:30:55;100286.84;;;12.70;100.00
42433;BME280;28071;48.232;20.668;2023-05-19T06:35:56;100308.25;;;13.02;100.00
42433;BME280;28071;48.232;20.668;2023-05-19T06:40:57;100302.72;;;12.97;100.00
42433;BME280;28071;48.232;20.668;2023-05-19T06:45:57;100311.44;;;13.17;100.00
42433;BME280;28071;48.232;20.668;2023-05-19T06:50:58;100299.47;;;13.26;100.00
42433;BME280;28071;48.232;20.668;2023-05-19T06:55:58;100313.66;;;13.52;100.00
42433;BME280;28071;48.232;20.668;2023-05-19T07:00:58;100313.22;;;13.55;100.00
42433;BME280;28071;48.232;20.668;2023-05-19T07:05:59;100290.03;;;13.74;100.00
42433;BME280;28071;48.232;20.668;2023-05-19T07:10:59;100315.34;;;14.14;100.00
42433;BME280;28071;48.232;20.668;2023-05-19T07:16:00;100311.84;;;14.51;100.00
42433;BME280;28071;48.232;20.668;2023-05-19T07:21:00;100305.06;;;14.85;100.00
42433;BME280;28071;48.232;20.668;2023-05-19T07:26:01;100310.38;;;15.15;100.00
42433;BME280;28071;48.232;20.668;2023-05-19T07:31:01;100282.41;;;14.99;100.00
42433;BME280;28071;48.232;20.668;2023-05-19T07:36:01;100313.25;;;15.55;100.00
42433;BME280;28071;48.232;20.668;2023-05-19T07:41:03;100276.78;;;15.54;100.00
42433;BME280;28071;48.232;20.668;2023-05-19T07:46:04;100314.25;;;15.84;100.00
42433;BME280;28071;48.232;20.668;2023-05-19T07:51:05;100308.53;;;16.04;100.00
42433;BME280;28071;48.232;20.668;2023-05-19T07:56:09;100303.78;;;16.46;100.00
42433;BME280;28071;48.232;20.668;2023-05-19T08:01:09;100312.19;;;16.90;100.00
42433;BME280;28071;48.232;20.668;2023-05-19T08:06:10;100296.00;;;17.02;98.01
42433;BME280;28071;48.232;20.668;2023-05-19T08:11:10;100285.06;;;16.91;96.89
42433;BME280;28071;48.232;20.668;2023-05-19T08:16:11;100313.81;;;17.36;99.32
42433;BME280;28071;48.232;20.668;2023-05-19T08:21:11;100300.63;;;17.68;96.01
42433;BME280;28071;48.232;20.668;2023-05-19T08:26:12;100308.06;;;18.17;93.77
42433;BME280;28071;48.232;20.668;2023-05-19T08:31:12;100302.13;;;18.15;91.67
42433;BME280;28071;48.232;20.668;2023-05-19T08:36:12;100300.03;;;18.44;92.17
42433;BME280;28071;48.232;20.668;2023-05-19T08:41:13;100264.09;;;18.55;91.41
42433;BME280;28071;48.232;20.668;2023-05-19T08:46:13;100310.72;;;19.04;92.35
42433;BME280;28071;48.232;20.668;2023-05-19T08:51:25;100298.28;;;19.30;88.90
42433;BME280;28071;48.232;20.668;2023-05-19T08:56:26;100292.63;;;19.64;85.40
42433;BME280;28071;48.232;20.668;2023-05-19T09:01:27;100299.44;;;19.72;85.42
42433;BME280;28071;48.232;20.668;2023-05-19T09:06:29;100302.88;;;19.62;82.90
42433;BME280;28071;48.232;20.668;2023-05-19T09:11:32;100295.16;;;20.23;85.86
42433;BME280;28071;48.232;20.668;2023-05-19T09:16:34;100290.16;;;20.52;85.09
42433;BME280;28071;48.232;20.668;2023-05-19T09:21:35;100283.50;;;20.90;81.46
42433;BME280;28071;48.232;20.668;2023-05-19T09:26:37;100271.09;;;21.20;78.36
42433;BME280;28071;48.232;20.668;2023-05-19T09:31:38;100289.78;;;21.72;80.46
42433;BME280;28071;48.232;20.668;2023-05-19T09:36:40;100286.22;;;21.92;78.25
42433;BME280;28071;48.232;20.668;2023-05-19T09:41:41;100275.16;;;21.68;77.82
42433;BME280;28071;48.232;20.668;2023-05-19T09:46:49;100290.50;;;22.13;79.47
42433;BME280;28071;48.232;20.668;2023-05-19T09:51:57;100278.78;;;22.33;75.62
42433;BME280;28071;48.232;20.668;2023-05-19T09:57:03;100275.66;;;22.65;73.35
42433;BME280;28071;48.232;20.668;2023-05-19T10:02:04;100280.53;;;22.68;75.22
42433;BME280;28071;48.232;20.668;2023-05-19T10:07:10;100281.38;;;23.08;73.72
42433;BME280;28071;48.232;20.668;2023-05-19T10:12:12;100277.06;;;23.02;71.72
42433;BME280;28071;48.232;20.668;2023-05-19T10:17:13;100271.56;;;23.12;72.47
42433;BME280;28071;48.232;20.668;2023-05-19T10:22:14;100277.56;;;23.72;69.92
42433;BME280;28071;48.232;20.668;2023-05-19T10:27:15;100259.16;;;23.93;69.51
42433;BME280;28071;48.232;20.668;2023-05-19T10:32:22;100258.00;;;23.75;68.31
42433;BME280;28071;48.232;20.668;2023-05-19T10:37:50;100257.63;;;24.54;68.54
42433;BME280;28071;48.232;20.668;2023-05-19T10:48:19;100246.81;;;25.24;67.91
42433;BME280;28071;48.232;20.668;2023-05-19T10:53:20;100245.09;;;25.28;64.35
42433;BME280;28071;48.232;20.668;2023-05-19T10:58:37;100248.78;;;25.51;64.45
42433;BME280;28071;48.232;20.668;2023-05-19T11:03:48;100221.16;;;25.99;63.77
42433;BME280;28071;48.232;20.668;2023-05-19T11:08:58;100235.13;;;25.97;62.85
42433;BME280;28071;48.232;20.668;2023-05-19T11:14:00;100243.88;;;26.22;60.52
42433;BME280;28071;48.232;20.668;2023-05-19T11:19:00;100229.22;;;26.32;58.82
42433;BME280;28071;48.232;20.668;2023-05-19T11:24:01;100234.50;;;26.78;57.20
42433;BME280;28071;48.232;20.668;2023-05-19T11:29:02;100239.56;;;27.07;58.94
42433;BME280;28071;48.232;20.668;2023-05-19T11:34:03;100231.91;;;27.18;55.74
42433;BME280;28071;48.232;20.668;2023-05-19T11:39:07;100225.09;;;27.29;52.21
42433;BME280;28071;48.232;20.668;2023-05-19T11:44:11;100227.00;;;27.59;53.68
42433;BME280;28071;48.232;20.668;2023-05-19T11:49:12;100209.13;;;27.84;52.59
42433;BME280;28071;48.232;20.668;2023-05-19T11:54:14;100234.25;;;27.95;53.23
42433;BME280;28071;48.232;20.668;2023-05-19T11:59:14;100218.72;;;28.22;51.64
42433;BME280;28071;48.232;20.668;2023-05-19T12:04:15;100206.53;;;28.71;50.59
42433;BME280;28071;48.232;20.668;2023-05-19T12:09:15;100206.06;;;28.43;52.36
42433;BME280;28071;48.232;20.668;2023-05-19T12:14:16;100192.84;;;28.62;51.48
42433;BME280;28071;48.232;20.668;2023-05-19T12:19:17;100179.66;;;28.73;49.35
42433;BME280;28071;48.232;20.668;2023-05-19T12:24:21;100182.56;;;28.51;47.82
42433;BME280;28071;48.232;20.668;2023-05-19T12:29:27;100180.28;;;28.87;46.71
42433;BME280;28071;48.232;20.668;2023-05-19T12:34:28;100166.41;;;29.10;42.76
42433;BME280;28071;48.232;20.668;2023-05-19T12:39:29;100166.84;;;29.20;43.27
42433;BME280;28071;48.232;20.668;2023-05-19T12:44:30;100171.75;;;29.53;42.65
42433;BME280;28071;48.232;20.668;2023-05-19T12:49:35;100153.22;;;29.03;43.75
42433;BME280;28071;48.232;20.668;2023-05-19T12:54:36;100173.00;;;29.64;40.80
42433;BME280;28071;48.232;20.668;2023-05-19T12:59:36;100170.78;;;29.58;41.28
42433;BME280;28071;48.232;20.668;2023-05-19T13:04:37;100167.88;;;29.83;36.84
42433;BME280;28071;48.232;20.668;2023-05-19T13:09:37;100147.25;;;30.16;32.67
42433;BME280;28071;48.232;20.668;2023-05-19T13:14:38;100158.81;;;29.92;34.43
42433;BME280;28071;48.232;20.668;2023-05-19T13:19:40;100155.59;;;29.90;35.73
42433;BME280;28071;48.232;20.668;2023-05-19T13:24:41;100141.59;;;29.82;34.19
42433;BME280;28071;48.232;20.668;2023-05-19T13:29:41;100136.19;;;30.24;34.44
42433;BME280;28071;48.232;20.668;2023-05-19T13:34:42;100133.22;;;30.29;31.13
42433;BME280;28071;48.232;20.668;2023-05-19T13:39:42;100121.72;;;30.36;32.83
42433;BME280;28071;48.232;20.668;2023-05-19T13:44:44;100119.22;;;30.43;34.64
42433;BME280;28071;48.232;20.668;2023-05-19T13:49:45;100114.81;;;30.30;34.11
42433;BME280;28071;48.232;20.668;2023-05-19T13:54:46;100104.00;;;30.13;32.64
42433;BME280;28071;48.232;20.668;2023-05-19T13:59:47;100111.53;;;30.36;32.07
42433;BME280;28071;48.232;20.668;2023-05-19T14:04:48;100105.69;;;30.59;33.56
42433;BME280;28071;48.232;20.668;2023-05-19T14:09:48;100103.13;;;30.21;32.50
42433;BME280;28071;48.232;20.668;2023-05-19T14:14:50;100093.34;;;30.32;33.85
42433;BME280;28071;48.232;20.668;2023-05-19T14:19:50;100079.22;;;30.21;34.18
42433;BME280;28071;48.232;20.668;2023-05-19T14:24:51;100097.25;;;30.31;34.05
42433;BME280;28071;48.232;20.668;2023-05-19T14:29:51;100078.75;;;30.19;34.92
42433;BME280;28071;48.232;20.668;2023-05-19T14:34:52;100088.16;;;30.30;34.62
42433;BME280;28071;48.232;20.668;2023-05-19T14:39:52;100105.81;;;30.62;34.19
42433;BME280;28071;48.232;20.668;2023-05-19T14:44:53;100101.66;;;30.89;33.21
42433;BME280;28071;48.232;20.668;2023-05-19T14:49:53;100106.16;;;30.61;33.80
42433;BME280;28071;48.232;20.668;2023-05-19T14:54:53;100107.34;;;30.72;33.54
42433;BME280;28071;48.232;20.668;2023-05-19T14:59:55;100098.47;;;30.87;35.01
42433;BME280;28071;48.232;20.668;2023-05-19T15:04:55;100098.66;;;30.49;34.10
42433;BME280;28071;48.232;20.668;2023-05-19T15:09:56;100098.13;;;30.56;34.65
42433;BME280;28071;48.232;20.668;2023-05-19T15:14:56;100097.94;;;30.61;34.32
42433;BME280;28071;48.232;20.668;2023-05-19T15:19:56;100093.66;;;30.84;33.87
42433;BME280;28071;48.232;20.668;2023-05-19T15:24:57;100080.31;;;30.62;34.82
42433;BME280;28071;48.232;20.668;2023-05-19T15:29:57;100084.59;;;30.51;32.95
42433;BME280;28071;48.232;20.668;2023-05-19T15:34:58;100080.84;;;30.55;33.64
42433;BME280;28071;48.232;20.668;2023-05-19T15:39:58;100071.47;;;30.56;33.79
42433;BME280;28071;48.232;20.668;2023-05-19T15:44:58;100068.81;;;30.48;34.43
42433;BME280;28071;48.232;20.668;2023-05-19T15:49:59;100054.66;;;30.25;33.46
42433;BME280;28071;48.232;20.668;2023-05-19T15:54:59;100065.75;;;30.28;33.77
42433;BME280;28071;48.232;20.668;2023-05-19T16:00:00;100054.94;;;30.11;33.79
42433;BME280;28071;48.232;20.668;2023-05-19T16:05:00;100061.22;;;29.91;33.85
42433;BME280;28071;48.232;20.668;2023-05-19T16:10:01;100060.84;;;29.12;35.43
42433;BME280;28071;48.232;20.668;2023-05-19T16:15:01;100068.41;;;28.08;38.06
42433;BME280;28071;48.232;20.668;2023-05-19T16:20:02;100065.91;;;27.54;38.73
42433;BME280;28071;48.232;20.668;2023-05-19T16:25:03;100067.13;;;26.91;40.63
42433;BME280;28071;48.232;20.668;2023-05-19T16:30:04;100058.31;;;26.05;42.04
42433;BME280;28071;48.232;20.668;2023-05-19T16:35:05;100060.97;;;25.96;44.08
42433;BME280;28071;48.232;20.668;2023-05-19T16:40:06;100069.09;;;25.73;43.28
42433;BME280;28071;48.232;20.668;2023-05-19T16:45:07;100071.31;;;25.44;50.18
42433;BME280;28071;48.232;20.668;2023-05-19T16:50:08;100077.06;;;25.42;53.35
42433;BME280;28071;48.232;20.668;2023-05-19T16:55:09;100068.00;;;25.06;55.79
42433;BME280;28071;48.232;20.668;2023-05-19T17:00:10;100073.06;;;24.94;56.21
42433;BME280;28071;48.232;20.668;2023-05-19T17:05:11;100074.16;;;24.65;56.27
42433;BME280;28071;48.232;20.668;2023-05-19T17:10:11;100054.34;;;24.27;60.92
42433;BME280;28071;48.232;20.668;2023-05-19T17:15:12;100066.34;;;24.07;64.53
42433;BME280;28071;48.232;20.668;2023-05-19T17:20:14;100088.97;;;23.36;68.53
42433;BME280;28071;48.232;20.668;2023-05-19T17:25:15;100104.31;;;22.97;70.56
42433;BME280;28071;48.232;20.668;2023-05-19T17:30:15;100082.56;;;22.34;74.52
42433;BME280;28071;48.232;20.668;2023-05-19T17:35:16;100104.41;;;22.09;77.16
42433;BME280;28071;48.232;20.668;2023-05-19T17:40:16;100101.88;;;21.68;79.70
42433;BME280;28071;48.232;20.668;2023-05-19T17:45:17;100086.09;;;21.11;81.50
42433;BME280;28071;48.232;20.668;2023-05-19T17:50:17;100093.16;;;20.76;84.44
42433;BME280;28071;48.232;20.668;2023-05-19T17:55:18;100112.63;;;20.58;87.31
42433;BME280;28071;48.232;20.668;2023-05-19T18:00:19;100113.59;;;20.16;91.25
42433;BME280;28071;48.232;20.668;2023-05-19T18:05:20;100109.44;;;19.78;95.89
42433;BME280;28071;48.232;20.668;2023-05-19T18:10:21;100118.19;;;19.48;99.26
42433;BME280;28071;48.232;20.668;2023-05-19T18:15:22;100121.22;;;19.09;100.00
42433;BME280;28071;48.232;20.668;2023-05-19T18:20:23;100127.03;;;18.91;100.00
42433;BME280;28071;48.232;20.668;2023-05-19T18:25:23;100145.44;;;18.67;100.00
42433;BME280;28071;48.232;20.668;2023-05-19T18:30:24;100132.94;;;18.34;100.00
42433;BME280;28071;48.232;20.668;2023-05-19T18:35:24;100144.81;;;18.11;100.00
42433;BME280;28071;48.232;20.668;2023-05-19T18:40:25;100139.59;;;17.77;100.00
42433;BME280;28071;48.232;20.668;2023-05-19T18:45:25;100160.31;;;17.77;100.00
42433;BME280;28071;48.232;20.668;2023-05-19T18:50:26;100156.78;;;17.54;100.00
42433;BME280;28071;48.232;20.668;2023-05-19T18:55:26;100154.50;;;17.29;100.00
42433;BME280;28071;48.232;20.668;2023-05-19T19:00:27;100167.00;;;17.18;100.00
42433;BME280;28071;48.232;20.668;2023-05-19T19:05:27;100170.91;;;17.11;100.00
42433;BME280;28071;48.232;20.668;2023-05-19T19:10:28;100179.47;;;16.91;100.00
42433;BME280;28071;48.232;20.668;2023-05-19T19:15:28;100178.91;;;16.89;100.00
42433;BME280;28071;48.232;20.668;2023-05-19T19:20:29;100171.56;;;16.84;100.00
42433;BME280;28071;48.232;20.668;2023-05-19T19:25:30;100171.50;;;16.79;100.00
42433;BME280;28071;48.232;20.668;2023-05-19T19:30:31;100173.53;;;16.60;100.00
42433;BME280;28071;48.232;20.668;2023-05-19T19:35:31;100170.13;;;16.48;100.00
42433;BME280;28071;48.232;20.668;2023-05-19T19:40:31;100172.69;;;16.43;100.00
42433;BME280;28071;48.232;20.668;2023-05-19T19:45:32;100175.00;;;16.23;100.00
42433;BME280;28071;48.232;20.668;2023-05-19T19:50:33;100182.38;;;16.16;100.00
42433;BME280;28071;48.232;20.668;2023-05-19T19:55:34;100184.06;;;15.93;100.00
42433;BME280;28071;48.232;20.668;2023-05-19T20:00:34;100170.44;;;15.83;100.00
42433;BME280;28071;48.232;20.668;2023-05-19T20:05:36;100182.03;;;15.72;100.00
42433;BME280;28071;48.232;20.668;2023-05-19T20:10:37;100194.38;;;15.49;100.00
42433;BME280;28071;48.232;20.668;2023-05-19T20:15:37;100188.66;;;15.46;100.00
42433;BME280;28071;48.232;20.668;2023-05-19T20:20:39;100191.81;;;15.31;100.00
42433;BME280;28071;48.232;20.668;2023-05-19T20:25:40;100161.72;;;14.94;100.00
42433;BME280;28071;48.232;20.668;2023-05-19T20:30:40;100186.09;;;15.04;100.00
42433;BME280;28071;48.232;20.668;2023-05-19T20:35:41;100201.56;;;15.02;100.00
42433;BME280;28071;48.232;20.668;2023-05-19T20:40:42;100189.97;;;14.78;100.00
42433;BME280;28071;48.232;20.668;2023-05-19T20:45:43;100169.94;;;14.69;100.00
42433;BME280;28071;48.232;20.668;2023-05-19T20:50:43;100184.19;;;14.81;100.00
42433;BME280;28071;48.232;20.668;2023-05-19T20:55:44;100179.78;;;14.57;100.00
42433;BME280;28071;48.232;20.668;2023-05-19T21:00:45;100178.88;;;14.51;100.00
42433;BME280;28071;48.232;20.668;2023-05-19T21:05:46;100197.91;;;14.25;100.00
42433;BME280;28071;48.232;20.668;2023-05-19T21:10:46;100185.41;;;14.07;100.00
42433;BME280;28071;48.232;20.668;2023-05-19T21:15:47;100169.13;;;13.90;100.00
42433;BME280;28071;48.232;20.668;2023-05-19T21:20:47;100196.81;;;13.96;100.00
42433;BME280;28071;48.232;20.668;2023-05-19T21:25:49;100203.88;;;13.90;100.00
42433;BME280;28071;48.232;20.668;2023-05-19T21:30:49;100202.88;;;13.91;100.00
42433;BME280;28071;48.232;20.668;2023-05-19T21:35:50;100194.84;;;13.91;100.00
42433;BME280;28071;48.232;20.668;2023-05-19T21:40:51;100175.59;;;13.82;100.00
42433;BME280;28071;48.232;20.668;2023-05-19T21:45:52;100191.47;;;13.96;100.00
42433;BME280;28071;48.232;20.668;2023-05-19T21:50:53;100188.81;;;13.96;100.00
42433;BME280;28071;48.232;20.668;2023-05-19T21:55:54;100168.19;;;13.84;100.00
42433;BME280;28071;48.232;20.668;2023-05-19T22:00:54;100196.53;;;14.04;100.00
42433;BME280;28071;48.232;20.668;2023-05-19T22:05:55;100195.59;;;13.98;100.00
42433;BME280;28071;48.232;20.668;2023-05-19T22:10:55;100200.25;;;14.03;100.00
42433;BME280;28071;48.232;20.668;2023-05-19T22:15:56;100163.94;;;13.77;100.00
42433;BME280;28071;48.232;20.668;2023-05-19T22:20:56;100183.72;;;13.76;100.00
42433;BME280;28071;48.232;20.668;2023-05-19T22:25:57;100203.16;;;13.83;100.00
42433;BME280;28071;48.232;20.668;2023-05-19T22:30:57;100210.78;;;13.79;100.00
42433;BME280;28071;48.232;20.668;2023-05-19T22:35:58;100198.94;;;13.75;100.00
42433;BME280;28071;48.232;20.668;2023-05-19T22:40:58;100200.84;;;13.68;100.00
42433;BME280;28071;48.232;20.668;2023-05-19T22:45:59;100198.31;;;13.55;100.00
42433;BME280;28071;48.232;20.668;2023-05-19T22:50:59;100165.63;;;13.35;100.00
42433;BME280;28071;48.232;20.668;2023-05-19T22:56:00;100183.56;;;13.27;100.00
42433;BME280;28071;48.232;20.668;2023-05-19T23:01:00;100173.56;;;13.16;100.00
42433;BME280;28071;48.232;20.668;2023-05-19T23:06:00;100161.78;;;12.99;100.00
42433;BME280;28071;48.232;20.668;2023-05-19T23:11:01;100179.13;;;12.90;100.00
42433;BME280;28071;48.232;20.668;2023-05-19T23:16:01;100188.34;;;12.94;100.00
42433;BME280;28071;48.232;20.668;2023-05-19T23:21:03;100175.19;;;12.67;100.00
42433;BME280;28071;48.232;20.668;2023-05-19T23:26:04;100163.16;;;12.52;100.00
42433;BME280;28071;48.232;20.668;2023-05-19T23:31:04;100172.03;;;12.45;100.00
42433;BME280;28071;48.232;20.668;2023-05-19T23:36:06;100175.63;;;12.33;100.00
42433;BME280;28071;48.232;20.668;2023-05-19T23:41:07;100192.94;;;12.17;100.00
42433;BME280;28071;48.232;20.668;2023-05-19T23:46:07;100150.59;;;11.89;100.00
42433;BME280;28071;48.232;20.668;2023-05-19T23:51:08;100155.69;;;11.90;100.00
42433;BME280;28071;48.232;20.668;2023-05-19T23:56:09;100153.88;;;11.84;100.00
